Bookmark and Share
Track history (hours):
 

Drifting buoy 51523

Last reported at 2013-Apr-12 14:55 UTC. Time now 2014-Apr-17 18:41 UTC.
Position S 18°35' W 157°48'.
Warning: this ship's position is years out of date!

Water temperature 28.3 ° C

NotesDate/timePositionNaut miles runAvg speedWind from/ knotsBaromVisibWave heightAir tempDewpointWater temp
2013-Apr-12 14:55S 18°35' W 157°48'0 0.2 28.3
2013-Apr-12 13:20S 18°35' W 157°49'0 3.4 28.3
2013-Apr-12 13:17S 18°35' W 157°49'1 0.3 28.3
2013-Apr-12 09:56S 18°34' W 157°49'1 1.4 28.4
2013-Apr-12 09:25S 18°34' W 157°48'0 0.4 28.4
2013-Apr-12 08:14S 18°34' W 157°48'0 0.0 28.4
2013-Apr-12 06:32S 18°34' W 157°48'0 0.0 28.4
2013-Apr-12 06:01S 18°34' W 157°48'0 0.0 28.4
2013-Apr-12 05:01S 18°34' W 157°48'0 0.0 28.4
2013-Apr-12 03:40S 18°34' W 157°48'0 0.2 28.4
2013-Apr-12 02:02S 18°33' W 157°48'1 0.6 28.4
2013-Apr-12 00:26S 18°32' W 157°48'0 0.0 28.4
2013-Apr-11 22:41S 18°32' W 157°48'1 0.3 28.4
2013-Apr-11 19:50S 18°33' W 157°49'0 0.5 28.3
2013-Apr-11 19:13S 18°33' W 157°49'0 0.3 28.3
2013-Apr-11 18:08S 18°33' W 157°49'1 0.2 28.4
2013-Apr-11 15:02S 18°32' W 157°49'0 0.1 28.4
2013-Apr-11 13:31S 18°32' W 157°49'1 0.7 28.4
2013-Apr-11 11:52S 18°31' W 157°50'1 6.8 28.5
2013-Apr-11 11:41S 18°31' W 157°49'0 0.0 28.5
2013-Apr-11 10:07S 18°31' W 157°49'0 0.1 28.5
2013-Apr-11 07:58S 18°30' W 157°49'1 1.0 28.5
2013-Apr-11 06:59S 18°30' W 157°49'0 0.1 28.5
2013-Apr-11 03:53S 18°30' W 157°49'0 2.6 28.6
2013-Apr-11 03:47S 18°30' W 157°48'0 0.0 28.6
2013-Apr-11 02:14S 18°30' W 157°48'0 7.7 28.6
2013-Apr-11 02:11S 18°29' W 157°49'0 0.0 28.6
2013-Apr-11 02:02S 18°29' W 157°49'0 0.3 28.6
2013-Apr-11 00:26S 18°29' W 157°49'0 0.0 28.6
2013-Apr-10 22:53S 18°29' W 157°49'0 0.2 28.5
2013-Apr-10 20:13S 18°29' W 157°49'1 0.2 28.4
2013-Apr-10 15:17S 18°29' W 157°49'1 0.4 28.4
2013-Apr-10 13:38S 18°28' W 157°50'0 0.0 28.4
2013-Apr-10 11:52S 18°28' W 157°50'0 0.0 28.4
2013-Apr-10 10:19S 18°28' W 157°50'0 0.0 28.5
2013-Apr-10 08:58S 18°28' W 157°50'0 0.2 28.5
2013-Apr-10 08:08S 18°28' W 157°50'1 0.3 28.5
2013-Apr-10 06:23S 18°28' W 157°50'0 0.0 28.5
2013-Apr-10 04:59S 18°28' W 157°50'0 0.0 28.6
2013-Apr-10 04:14S 18°28' W 157°50'0 0.2 28.6
2013-Apr-10 02:25S 18°28' W 157°51'1 0.5 28.6
2013-Apr-10 00:49S 18°28' W 157°51'1 4.4 28.6
2013-Apr-10 00:37S 18°27' W 157°51'0 0.0 28.6
2013-Apr-09 23:02S 18°27' W 157°51'1 0.3 28.6
2013-Apr-09 18:52S 18°26' W 157°52'212.9 28.5
2013-Apr-09 18:44S 18°24' W 157°51'1 2.0 28.5
2013-Apr-09 18:11S 18°25' W 157°52'1 0.3 28.5
2013-Apr-09 13:50S 18°24' W 157°51'0 0.0 28.5
2013-Apr-09 12:13S 18°24' W 157°51'1 0.2 28.5
2013-Apr-09 08:14S 18°24' W 157°50'0 0.0 28.6
2013-Apr-09 07:43S 18°24' W 157°50'0 0.5 28.6
2013-Apr-09 06:58S 18°23' W 157°50'0 1.2 28.6
2013-Apr-09 06:38S 18°24' W 157°50'0 0.3 28.6
2013-Apr-09 05:26S 18°23' W 157°50'0 0.3 28.6
2013-Apr-09 04:40S 18°23' W 157°50'1 0.4 28.6
2013-Apr-09 03:01S 18°23' W 157°49'1 1.5 28.7
2013-Apr-09 02:26S 18°24' W 157°50'0 0.1 28.7
2013-Apr-09 00:59S 18°24' W 157°50'0 0.0 28.7
2013-Apr-08 23:17S 18°24' W 157°50'1 0.5 28.7
2013-Apr-08 20:49S 18°25' W 157°51'1 0.9 28.5
2013-Apr-08 19:50S 18°24' W 157°51'1 0.5 28.4
2013-Apr-08 16:56S 18°23' W 157°52'1 0.2 28.4
2013-Apr-08 14:02S 18°23' W 157°52'1 0.3 28.5
2013-Apr-08 12:25S 18°22' W 157°52'1 2.9 28.5
2013-Apr-08 12:14S 18°22' W 157°52'0 0.1 28.5
2013-Apr-08 09:41S 18°22' W 157°52'2 0.7 28.5
2013-Apr-08 06:56S 18°20' W 157°51'0 0.0 28.6
2013-Apr-08 05:47S 18°20' W 157°51'1 0.6 28.6
2013-Apr-08 03:26S 18°19' W 157°50'0 0.3 28.6
2013-Apr-08 02:46S 18°19' W 157°50'1 8.1 28.6
2013-Apr-08 02:37S 18°19' W 157°49'0 0.0 28.6
2013-Apr-08 01:10S 18°19' W 157°49'1 0.2 28.6
2013-Apr-07 21:08S 18°20' W 157°48'1 1.0 28.6
2013-Apr-07 19:59S 18°21' W 157°49'0 0.0
2013-Apr-07 19:34S 18°21' W 157°49'0 0.0 28.5
2013-Apr-07 19:28S 18°21' W 157°49'0 0.1 28.5
2013-Apr-07 17:22S 18°21' W 157°49'0 0.1 28.5
2013-Apr-07 14:58S 18°21' W 157°48'0 0.4 28.5
2013-Apr-07 14:13S 18°21' W 157°49'1 0.4 28.5
2013-Apr-07 12:35S 18°21' W 157°49'1 0.2 28.6
2013-Apr-07 09:59S 18°20' W 157°50'0 0.0 28.6
2013-Apr-07 08:49S 18°20' W 157°50'210.3 28.6
2013-Apr-07 08:40S 18°19' W 157°49'0 0.0 28.6
2013-Apr-07 08:25S 18°19' W 157°49'0 0.0 28.6
2013-Apr-07 06:38S 18°19' W 157°49'2 3.4 28.6
2013-Apr-07 06:11S 18°20' W 157°50'1 7.5 28.6
2013-Apr-07 06:02S 18°19' W 157°49'0 0.0 28.6
2013-Apr-07 05:25S 18°19' W 157°49'0 0.0 28.6
2013-Apr-07 03:47S 18°19' W 157°49'0 0.2 28.7
2013-Apr-07 02:58S 18°19' W 157°50'1 6.9 28.7
2013-Apr-07 02:50S 18°18' W 157°49'0 0.0 28.7
2013-Apr-07 01:19S 18°18' W 157°49'1 5.7 28.7
2013-Apr-07 01:13S 18°18' W 157°48'1 0.4 28.7
2013-Apr-06 23:40S 18°19' W 157°48'0 0.1 28.7
2013-Apr-06 19:55S 18°19' W 157°48'0 0.1 28.6
2013-Apr-06 15:11S 18°20' W 157°48'0 0.0 28.6
2013-Apr-06 14:22S 18°20' W 157°48'0 1.3 28.6
2013-Apr-06 14:13S 18°19' W 157°48'0 0.0 28.6
2013-Apr-06 12:44S 18°19' W 157°48'0 2.1 28.7
2013-Apr-06 12:35S 18°19' W 157°48'1 0.2 28.7
2013-Apr-06 08:55S 18°19' W 157°49'1 0.3 28.9
2013-Apr-06 06:59S 18°20' W 157°50'1 0.4 29.0
2013-Apr-06 04:56S 18°20' W 157°51'0 0.3 29.2
2013-Apr-06 04:14S 18°19' W 157°51'1 0.6 29.2
2013-Apr-06 03:08S 18°19' W 157°51'1 0.5 29.3
2013-Apr-06 01:31S 18°18' W 157°50'0 0.2 29.5
2013-Apr-05 23:52S 18°18' W 157°50'1 0.2 29.4
2013-Apr-05 20:25S 18°19' W 157°51'0 0.1 28.7
2013-Apr-05 18:29S 18°19' W 157°50'0 0.2 28.6
2013-Apr-05 15:46S 18°19' W 157°51'0 0.2 28.6
2013-Apr-05 14:35S 18°19' W 157°51'0 0.2 28.7
2013-Apr-05 12:56S 18°19' W 157°51'1 0.3 28.7
2013-Apr-05 11:16S 18°19' W 157°51'1 0.4 28.8
2013-Apr-05 09:07S 18°19' W 157°52'1 4.6 28.8
2013-Apr-05 08:59S 18°19' W 157°51'1 0.4 28.9
2013-Apr-05 07:32S 18°19' W 157°52'0 0.0 29.0
2013-Apr-05 07:20S 18°19' W 157°52'0 0.0 29.0
2013-Apr-05 07:14S 18°19' W 157°52'0 0.5 29.0
2013-Apr-05 06:52S 18°19' W 157°52'0 0.0 29.1
2013-Apr-05 05:19S 18°19' W 157°52'0 0.1 29.2
2013-Apr-05 03:19S 18°19' W 157°52'0 0.8 29.4
2013-Apr-05 02:58S 18°19' W 157°52'0 0.1 29.5
2013-Apr-05 01:41S 18°19' W 157°52'0 0.1 29.7
2013-Apr-05 00:01S 18°19' W 157°52'0 0.1 29.3
2013-Apr-04 20:38S 18°18' W 157°52'0 2.3 28.6
2013-Apr-04 20:35S 18°18' W 157°52'0 1.1 28.6
2013-Apr-04 20:29S 18°18' W 157°52'0 0.3 28.6
2013-Apr-04 18:58S 18°19' W 157°52'0 1.2 28.6
2013-Apr-04 18:55S 18°19' W 157°52'0 0.1 28.6
2013-Apr-04 16:52S 18°19' W 157°52'0 0.1 28.6
2013-Apr-04 16:10S 18°19' W 157°52'0 0.0 28.6
2013-Apr-04 14:46S 18°19' W 157°52'1 0.3 28.6
2013-Apr-04 13:07S 18°19' W 157°52'0 0.7 28.6
2013-Apr-04 13:02S 18°19' W 157°52'0 0.2 28.6
2013-Apr-04 11:26S 18°18' W 157°52'1 0.3 28.6
2013-Apr-04 09:23S 18°19' W 157°51'1 0.4 28.6
2013-Apr-04 07:46S 18°18' W 157°52'1 0.6 28.7
2013-Apr-04 05:34S 18°20' W 157°52'0 0.0 28.8
2013-Apr-04 03:28S 18°20' W 157°52'0 0.0 29.1
2013-Apr-04 03:23S 18°20' W 157°52'1 0.5 29.1
2013-Apr-04 01:52S 18°19' W 157°53'116.3 29.1
2013-Apr-04 01:50S 18°20' W 157°52'1 0.8 29.1
2013-Apr-04 00:13S 18°18' W 157°53'0 0.0 29.1
2013-Apr-03 20:55S 18°18' W 157°53'1 0.4 28.6
2013-Apr-03 19:14S 18°19' W 157°53'0 0.0 28.6
2013-Apr-03 19:11S 18°19' W 157°53'0 0.2 28.6
2013-Apr-03 17:14S 18°19' W 157°53'0 0.2 28.6
2013-Apr-03 15:34S 18°19' W 157°53'0 0.5 28.6
2013-Apr-03 14:56S 18°19' W 157°53'1 0.6 28.6
2013-Apr-03 13:17S 18°18' W 157°54'2 0.5 28.6
2013-Apr-03 09:43S 18°18' W 157°52'1 0.6 28.6
2013-Apr-03 08:02S 18°17' W 157°53'113.7 28.6
2013-Apr-03 07:59S 18°17' W 157°52'0 0.8 28.6
2013-Apr-03 07:53S 18°17' W 157°52'0 0.2 28.6
2013-Apr-03 06:01S 18°17' W 157°52'0 0.2 28.7
2013-Apr-03 03:47S 18°17' W 157°52'1 0.4 28.7
2013-Apr-03 02:01S 18°18' W 157°51'0 0.3 28.7
2013-Apr-03 00:23S 18°18' W 157°51'1 0.4 28.7
2013-Apr-02 22:35S 18°18' W 157°50'1 0.2 28.6
2013-Apr-02 19:22S 18°19' W 157°51'1 0.3 28.6
2013-Apr-02 15:59S 18°20' W 157°51'1 1.5 28.6
2013-Apr-02 15:04S 18°21' W 157°52'   28.6

Dump ship's entire track history

sailing weather and tide predictions

Buoy 51523